Time;durP1;ratioP1;P1;durP2;ratioP2;P2;SDS_P1;SDS_P2;PMS_P1;PMS_P2;Temp;Humidity;BMP_temperature;BMP_pressure;BME280_temperature;BME280_humidity;BME280_pressure;Samples;Min_cycle;Max_cycle;Signal;HPM_P1;HPM_P2
2022/05/17 00:00:37;;;;;;;;;;;;;;;;;;5032671;28;19925;-66
2022/05/17 00:03:03;;;;;;;;;;;;;;;;;;5032148;28;19944;-66
2022/05/17 00:05:29;;;;;;;;;;;;;;;;;;5032447;28;20003;-66
2022/05/17 00:07:55;;;;;;;;;;;;;;;;;;5032423;28;19983;-66
2022/05/17 00:10:21;;;;;;;;;;;;;;;;;;5030598;28;19925;-66
2022/05/17 00:12:47;;;;;;;;;;;;;;;;;;5032537;28;20375;-66
2022/05/17 00:15:13;;;;;;;;;;;;;;;;;;5032281;28;19921;-66
2022/05/17 00:17:39;;;;;;;;;;;;;;;;;;5031462;28;19925;-66
2022/05/17 00:20:05;;;;;;;;;;;;;;;;;;5032215;28;19921;-66
2022/05/17 00:22:31;;;;;;;;;;;;;;;;;;5033037;28;19925;-66
2022/05/17 00:24:57;;;;;;;;;;;;;;;;;;5035341;28;19925;-66
2022/05/17 00:27:23;;;;;;;;;;;;;;;;;;5051268;28;19928;-66
2022/05/17 00:29:50;;;;;;;;;;;;;;;;;;5036094;28;19944;-66
2022/05/17 00:32:16;;;;;;;;;;;;;;;;;;5035161;28;19925;-66
2022/05/17 00:34:46;;;;;;;;;;;;;;;;;;5035898;28;19929;-66
2022/05/17 00:37:12;;;;;;;;;;;;;;;;;;5036047;28;19925;-66
2022/05/17 00:39:38;;;;;;;;;;;;;;;;;;5035001;28;19999;-66
2022/05/17 00:42:04;;;;;;;;;;;;;;;;;;5035542;28;20015;-66
2022/05/17 00:44:42;;;;;;;;;;;;;;;;;;5036071;28;19925;-66
2022/05/17 00:47:08;;;;;;;;;;;;;;;;;;5035338;28;19921;-66
2022/05/17 00:49:34;;;;;;;;;;;;;;;;;;5035785;28;19925;-66
2022/05/17 00:52:00;;;;;;;;;;;;;;;;;;5035718;28;19925;-66
2022/05/17 00:54:26;;;;;;;;;;;;;;;;;;5035122;28;19925;-66
2022/05/17 00:56:52;;;;;;;;;;;;;;;;;;5035624;28;19924;-66
2022/05/17 00:59:18;;;;;;;;;;;;;;;;;;5035628;28;19921;-66
2022/05/17 01:01:44;;;;;;;;;;;;;;;;;;5067118;28;19991;-66
2022/05/17 01:04:11;;;;;;;;;;;;;;;;;;5035701;28;19929;-66
2022/05/17 01:06:37;;;;;;;;;;;;;;;;;;5035525;28;20059;-66
2022/05/17 01:09:03;;;;;;;;;;;;;;;;;;5034489;28;20387;-66
2022/05/17 01:11:28;;;;;;;;;;;;;;;;;;5035319;28;20056;-66
2022/05/17 01:16:40;;;;;;;;;;;;;;;;;;5034713;28;20305;-66
2022/05/17 01:19:06;;;;;;;;;;;;;;;;;;5035081;28;19971;-66
2022/05/17 01:21:32;;;;;;;;;;;;;;;;;;5034968;28;20024;-66
2022/05/17 01:23:58;;;;;;;;;;;;;;;;;;5034508;28;20424;-66
2022/05/17 01:26:24;;;;;;;;;;;;;;;;;;5034916;28;20319;-66
2022/05/17 01:28:50;;;;;;;;;;;;;;;;;;5033292;28;19925;-66
2022/05/17 01:31:16;;;;;;;;;;;;;;;;;;5034100;28;19944;-66
2022/05/17 01:33:42;;;;;;;;;;;;;;;;;;5049713;28;19944;-66
2022/05/17 01:36:08;;;;;;;;;;;;;;;;;;5034639;28;20019;-66
2022/05/17 01:38:33;;;;;;;;;;;;;;;;;;5034118;28;19925;-66
2022/05/17 01:40:59;;;;;;;;;;;;;;;;;;5034178;28;19925;-66
2022/05/17 01:43:25;;;;;;;;;;;;;;;;;;5034638;28;19964;-66
2022/05/17 01:45:51;;;;;;;;;;;;;;;;;;5033886;28;19921;-66
2022/05/17 01:48:17;;;;;;;;;;;;;;;;;;5034513;28;19990;-66
2022/05/17 01:50:43;;;;;;;;;;;;;;;;;;5032880;28;20000;-66
2022/05/17 01:53:09;;;;;;;;;;;;;;;;;;5048741;28;19944;-66
2022/05/17 01:55:35;;;;;;;;;;;;;;;;;;5034408;28;19921;-66
2022/05/17 01:58:01;;;;;;;;;;;;;;;;;;5049964;28;19932;-66
2022/05/17 02:00:27;;;;;;;;;;;;;;;;;;5033290;28;19925;-66
2022/05/17 02:02:53;;;;;;;;;;;;;;;;;;5034146;28;19921;-66
2022/05/17 02:05:19;;;;;;;;;;;;;;;;;;5033750;28;19925;-66
2022/05/17 02:07:45;;;;;;;;;;;;;;;;;;5048654;28;19932;-66
2022/05/17 02:10:11;;;;;;;;;;;;;;;;;;5032456;28;19959;-66
2022/05/17 02:12:37;;;;;;;;;;;;;;;;;;5034143;28;19921;-66
2022/05/17 02:15:02;;;;;;;;;;;;;;;;;;5033379;28;20034;-66
2022/05/17 02:17:28;;;;;;;;;;;;;;;;;;5034039;28;19921;-66
2022/05/17 02:19:54;;;;;;;;;;;;;;;;;;5033983;28;19928;-66
2022/05/17 02:22:22;;;;;;;;;;;;;;;;;;5033347;28;19968;-66
2022/05/17 02:24:48;;;;;;;;;;;;;;;;;;5033842;28;19921;-66
2022/05/17 02:27:14;;;;;;;;;;;;;;;;;;5033635;28;20393;-66
2022/05/17 02:29:39;;;;;;;;;;;;;;;;;;5032945;28;19925;-66
2022/05/17 02:32:05;;;;;;;;;;;;;;;;;;5033506;28;19925;-66
2022/05/17 02:34:32;;;;;;;;;;;;;;;;;;5033474;28;20027;-66
2022/05/17 02:36:58;;;;;;;;;;;;;;;;;;5032709;28;19924;-66
2022/05/17 02:39:24;;;;;;;;;;;;;;;;;;5033303;28;20466;-66
2022/05/17 02:41:50;;;;;;;;;;;;;;;;;;5033321;28;19995;-66
2022/05/17 02:44:16;;;;;;;;;;;;;;;;;;5031527;28;20296;-66
2022/05/17 02:46:42;;;;;;;;;;;;;;;;;;5032835;28;19921;-66
2022/05/17 02:49:08;;;;;;;;;;;;;;;;;;5032832;28;19970;-66
2022/05/17 02:51:34;;;;;;;;;;;;;;;;;;5032781;28;20004;-66
2022/05/17 02:54:00;;;;;;;;;;;;;;;;;;5033092;28;20578;-66
2022/05/17 02:56:26;;;;;;;;;;;;;;;;;;5033175;28;19925;-66
2022/05/17 02:58:52;;;;;;;;;;;;;;;;;;5031628;28;19921;-66
2022/05/17 03:01:18;;;;;;;;;;;;;;;;;;5032434;28;19948;-66
2022/05/17 03:03:44;;;;;;;;;;;;;;;;;;5031370;28;19921;-66
2022/05/17 03:06:10;;;;;;;;;;;;;;;;;;5032900;28;19943;-66
2022/05/17 03:08:36;;;;;;;;;;;;;;;;;;5032162;28;19921;-66
2022/05/17 03:11:02;;;;;;;;;;;;;;;;;;5032948;28;20080;-66
2022/05/17 03:13:27;;;;;;;;;;;;;;;;;;5032951;28;19932;-66
2022/05/17 03:15:53;;;;;;;;;;;;;;;;;;5032071;28;19921;-66
2022/05/17 03:18:19;;;;;;;;;;;;;;;;;;5032650;28;19996;-66
2022/05/17 03:20:45;;;;;;;;;;;;;;;;;;5032690;28;19925;-66
2022/05/17 03:23:11;;;;;;;;;;;;;;;;;;5030802;28;19925;-66
2022/05/17 03:25:37;;;;;;;;;;;;;;;;;;5032611;28;19920;-66
2022/05/17 03:28:03;;;;;;;;;;;;;;;;;;5032379;28;19944;-66
2022/05/17 03:30:30;;;;;;;;;;;;;;;;;;5031567;28;19928;-66
2022/05/17 03:32:56;;;;;;;;;;;;;;;;;;5032249;28;20271;-66
2022/05/17 03:35:22;;;;;;;;;;;;;;;;;;5032485;28;19961;-66
2022/05/17 03:37:48;;;;;;;;;;;;;;;;;;5031655;28;20339;-66
2022/05/17 03:40:14;;;;;;;;;;;;;;;;;;5031993;28;19970;-66
2022/05/17 03:42:40;;;;;;;;;;;;;;;;;;5032391;28;20590;-66
2022/05/17 03:45:06;;;;;;;;;;;;;;;;;;5031715;28;19921;-66
2022/05/17 03:47:33;;;;;;;;;;;;;;;;;;5031009;28;19921;-66
2022/05/17 03:49:59;;;;;;;;;;;;;;;;;;5030994;28;20372;-66
2022/05/17 03:52:25;;;;;;;;;;;;;;;;;;5031671;28;19921;-66
2022/05/17 03:54:50;;;;;;;;;;;;;;;;;;5032431;28;19952;-66
2022/05/17 03:57:16;;;;;;;;;;;;;;;;;;5034402;28;19921;-66
2022/05/17 03:59:42;;;;;;;;;;;;;;;;;;5050713;28;19943;-66
2022/05/17 04:02:08;;;;;;;;;;;;;;;;;;5036064;28;19921;-66
2022/05/17 04:04:35;;;;;;;;;;;;;;;;;;5036332;28;19931;-66
2022/05/17 04:07:01;;;;;;;;;;;;;;;;;;5035833;28;20004;-66
2022/05/17 04:09:27;;;;;;;;;;;;;;;;;;5035777;28;19929;-66
2022/05/17 04:11:54;;;;;;;;;;;;;;;;;;5036219;28;19944;-66
2022/05/17 04:14:19;;;;;;;;;;;;;;;;;;5035558;28;19971;-66
2022/05/17 04:16:45;;;;;;;;;;;;;;;;;;5051269;28;19925;-66
2022/05/17 04:19:14;;;;;;;;;;;;;;;;;;5036040;28;19947;-66
2022/05/17 04:21:40;;;;;;;;;;;;;;;;;;5035381;28;19921;-66
2022/05/17 04:24:06;;;;;;;;;;;;;;;;;;5035945;28;20304;-66
2022/05/17 04:26:32;;;;;;;;;;;;;;;;;;5035752;28;19921;-66
2022/05/17 04:28:58;;;;;;;;;;;;;;;;;;5035116;28;20012;-66
2022/05/17 04:31:24;;;;;;;;;;;;;;;;;;5035136;28;20449;-66
2022/05/17 04:33:50;;;;;;;;;;;;;;;;;;5034052;28;19921;-66
2022/05/17 04:36:16;;;;;;;;;;;;;;;;;;5034997;28;19921;-66
2022/05/17 04:38:42;;;;;;;;;;;;;;;;;;5035427;28;19944;-66
2022/05/17 04:41:08;;;;;;;;;;;;;;;;;;5033853;28;19931;-66
2022/05/17 04:43:34;;;;;;;;;;;;;;;;;;5034876;28;20079;-66
2022/05/17 04:46:00;;;;;;;;;;;;;;;;;;5035421;28;19925;-66
2022/05/17 04:48:26;;;;;;;;;;;;;;;;;;5035377;28;19925;-66
2022/05/17 04:50:52;;;;;;;;;;;;;;;;;;5034876;28;19932;-66
2022/05/17 04:53:18;;;;;;;;;;;;;;;;;;5035436;28;19921;-66
2022/05/17 04:55:44;;;;;;;;;;;;;;;;;;5034980;28;19928;-66
2022/05/17 04:58:10;;;;;;;;;;;;;;;;;;5034667;28;20339;-66
2022/05/17 05:00:36;;;;;;;;;;;;;;;;;;5034994;28;19975;-66
2022/05/17 05:03:02;;;;;;;;;;;;;;;;;;5034980;28;19921;-66
2022/05/17 05:05:28;;;;;;;;;;;;;;;;;;5034471;28;19927;-66
2022/05/17 05:07:54;;;;;;;;;;;;;;;;;;5034683;28;19921;-66
2022/05/17 05:10:20;;;;;;;;;;;;;;;;;;5034566;28;19932;-66
2022/05/17 05:12:46;;;;;;;;;;;;;;;;;;5033158;28;19921;-66
2022/05/17 05:15:12;;;;;;;;;;;;;;;;;;5016648;28;19921;-66
2022/05/17 05:17:38;;;;;;;;;;;;;;;;;;5030649;28;19986;-66
2022/05/17 05:20:04;;;;;;;;;;;;;;;;;;5032669;28;20276;-66
2022/05/17 05:22:30;;;;;;;;;;;;;;;;;;5033032;28;19921;-66
2022/05/17 05:24:56;;;;;;;;;;;;;;;;;;5034089;28;19943;-66
2022/05/17 05:27:22;;;;;;;;;;;;;;;;;;5033247;28;19929;-66
2022/05/17 05:29:48;;;;;;;;;;;;;;;;;;5034168;28;19988;-66
2022/05/17 05:32:14;;;;;;;;;;;;;;;;;;5049561;28;20060;-66
2022/05/17 05:34:40;;;;;;;;;;;;;;;;;;5033574;28;19976;-66
2022/05/17 05:37:05;;;;;;;;;;;;;;;;;;5033587;28;19929;-66
2022/05/17 05:39:31;;;;;;;;;;;;;;;;;;5032890;28;19925;-66
2022/05/17 05:41:57;;;;;;;;;;;;;;;;;;5033136;28;19925;-66
2022/05/17 05:44:23;;;;;;;;;;;;;;;;;;5033898;28;19928;-66
2022/05/17 05:46:49;;;;;;;;;;;;;;;;;;5033472;28;19921;-66
2022/05/17 05:49:16;;;;;;;;;;;;;;;;;;5032790;28;19921;-66
2022/05/17 05:51:42;;;;;;;;;;;;;;;;;;5033935;28;20267;-66
2022/05/17 05:54:09;;;;;;;;;;;;;;;;;;5033404;28;19952;-66
2022/05/17 05:56:36;;;;;;;;;;;;;;;;;;5032873;28;19921;-66
2022/05/17 05:59:02;;;;;;;;;;;;;;;;;;5032870;28;19921;-66
2022/05/17 06:01:28;;;;;;;;;;;;;;;;;;5033455;28;20283;-66
2022/05/17 06:03:54;;;;;;;;;;;;;;;;;;5048186;28;19921;-66
2022/05/17 06:06:20;;;;;;;;;;;;;;;;;;5033115;28;20014;-66
2022/05/17 06:08:46;;;;;;;;;;;;;;;;;;5032722;28;19925;-66
2022/05/17 06:11:12;;;;;;;;;;;;;;;;;;5032851;28;19983;-66
2022/05/17 06:13:38;;;;;;;;;;;;;;;;;;5035042;28;20161;-65
2022/05/17 06:16:04;;;;;;;;;;;;;;;;;;5039539;28;19994;-66
2022/05/17 06:18:30;;;;;;;;;;;;;;;;;;5036738;28;19921;-65
2022/05/17 06:20:56;;;;;;;;;;;;;;;;;;5035721;28;19925;-65
2022/05/17 06:23:22;;;;;;;;;;;;;;;;;;5036491;28;19929;-67
2022/05/17 06:25:48;;;;;;;;;;;;;;;;;;5029863;28;19966;-65
2022/05/17 06:28:15;;;;;;;;;;;;;;;;;;5030719;28;20000;-67
2022/05/17 06:30:43;;;;;;;;;;;;;;;;;;5033782;28;19936;-67
2022/05/17 06:33:09;;;;;;;;;;;;;;;;;;5032945;28;19932;-65
2022/05/17 06:35:35;;;;;;;;;;;;;;;;;;5033984;28;19925;-66
2022/05/17 06:38:02;;;;;;;;;;;;;;;;;;5033366;28;20011;-66
2022/05/17 06:40:27;;;;;;;;;;;;;;;;;;5034182;28;19979;-66
2022/05/17 06:42:53;;;;;;;;;;;;;;;;;;5029750;28;20352;-66
2022/05/17 06:45:19;;;;;;;;;;;;;;;;;;5032283;28;19963;-67
2022/05/17 06:47:46;;;;;;;;;;;;;;;;;;5033478;28;20035;-65
2022/05/17 06:50:12;;;;;;;;;;;;;;;;;;5034676;28;19925;-65
2022/05/17 06:52:38;;;;;;;;;;;;;;;;;;5035577;28;19947;-64
2022/05/17 06:55:04;;;;;;;;;;;;;;;;;;5034613;28;19921;-65
2022/05/17 06:57:30;;;;;;;;;;;;;;;;;;5035325;28;19925;-67
2022/05/17 06:59:56;;;;;;;;;;;;;;;;;;5032049;28;19921;-65
2022/05/17 07:02:22;;;;;;;;;;;;;;;;;;5034748;28;19925;-65
2022/05/17 07:04:48;;;;;;;;;;;;;;;;;;5033493;28;19928;-66
2022/05/17 07:07:14;;;;;;;;;;;;;;;;;;5032465;28;20015;-66
2022/05/17 07:09:40;;;;;;;;;;;;;;;;;;5034912;28;19924;-66
2022/05/17 07:14:51;;;;;;;;;;;;;;;;;;5032394;28;20399;-64
2022/05/17 07:17:17;;;;;;;;;;;;;;;;;;5031857;28;20035;-64
2022/05/17 07:19:43;;;;;;;;;;;;;;;;;;5031638;28;20470;-64
2022/05/17 07:22:09;;;;;;;;;;;;;;;;;;5032646;28;20302;-64
2022/05/17 07:24:36;;;;;;;;;;;;;;;;;;5032869;28;20391;-63
2022/05/17 07:27:02;;;;;;;;;;;;;;;;;;5031945;28;19921;-65
2022/05/17 07:29:28;;;;;;;;;;;;;;;;;;5032631;28;19928;-65
2022/05/17 07:31:54;;;;;;;;;;;;;;;;;;5037662;28;19952;-66
2022/05/17 07:34:21;;;;;;;;;;;;;;;;;;5037297;28;19932;-66
2022/05/17 07:36:47;;;;;;;;;;;;;;;;;;5031914;28;19925;-66
2022/05/17 07:39:13;;;;;;;;;;;;;;;;;;5033055;28;19921;-66
2022/05/17 07:41:42;;;;;;;;;;;;;;;;;;5033021;28;21366;-65
2022/05/17 07:44:08;;;;;;;;;;;;;;;;;;5036838;28;19932;-65
2022/05/17 07:46:34;;;;;;;;;;;;;;;;;;5042768;28;19925;-65
2022/05/17 07:49:00;;;;;;;;;;;;;;;;;;5031406;28;19932;-67
2022/05/17 07:51:25;;;;;;;;;;;;;;;;;;5032150;28;19921;-66
2022/05/17 07:53:51;;;;;;;;;;;;;;;;;;5030417;28;19971;-66
2022/05/17 07:56:17;;;;;;;;;;;;;;;;;;5032937;28;19921;-65
2022/05/17 07:58:43;;;;;;;;;;;;;;;;;;5029006;28;20014;-65
2022/05/17 08:01:09;;;;;;;;;;;;;;;;;;5030781;28;19925;-65
2022/05/17 08:03:35;;;;;;;;;;;;;;;;;;5031560;28;19990;-66
2022/05/17 08:06:01;;;;;;;;;;;;;;;;;;5034002;28;19929;-66
2022/05/17 08:08:27;;;;;;;;;;;;;;;;;;5030529;28;19927;-65
2022/05/17 08:10:53;;;;;;;;;;;;;;;;;;5029984;28;19928;-65
2022/05/17 08:13:19;;;;;;;;;;;;;;;;;;5031713;28;20053;-66
2022/05/17 08:15:45;;;;;;;;;;;;;;;;;;5046444;28;19925;-66
2022/05/17 08:18:11;;;;;;;;;;;;;;;;;;5029872;28;20008;-66
2022/05/17 08:20:37;;;;;;;;;;;;;;;;;;5031893;28;19929;-67
2022/05/17 08:23:03;;;;;;;;;;;;;;;;;;5031485;28;19921;-67
2022/05/17 08:28:14;;;;;;;;;;;;;;;;;;5031250;28;20323;-69
2022/05/17 08:30:40;;;;;;;;;;;;;;;;;;5030947;28;20052;-67
2022/05/17 08:33:19;;;;;;;;;;;;;;;;;;5030879;28;20008;-67
2022/05/17 08:35:46;;;;;;;;;;;;;;;;;;5039179;28;20030;-68
2022/05/17 08:38:11;;;;;;;;;;;;;;;;;;5026030;28;19929;-69
2022/05/17 08:40:37;;;;;;;;;;;;;;;;;;5028879;28;20487;-67
2022/05/17 08:43:03;;;;;;;;;;;;;;;;;;5030728;28;19921;-68
2022/05/17 08:45:30;;;;;;;;;;;;;;;;;;5035101;28;19932;-66
2022/05/17 08:47:57;;;;;;;;;;;;;;;;;;5033891;28;19925;-70
2022/05/17 08:50:23;;;;;;;;;;;;;;;;;;5033421;28;19925;-67
2022/05/17 08:52:48;;;;;;;;;;;;;;;;;;5032707;28;19974;-68
2022/05/17 08:55:14;;;;;;;;;;;;;;;;;;5030715;28;19925;-69
2022/05/17 08:57:41;;;;;;;;;;;;;;;;;;5033413;28;19944;-69
2022/05/17 09:00:06;;;;;;;;;;;;;;;;;;5035352;28;19921;-68
2022/05/17 09:02:32;;;;;;;;;;;;;;;;;;5033625;28;20004;-66
2022/05/17 09:04:58;;;;;;;;;;;;;;;;;;5033908;28;19925;-68
2022/05/17 09:07:24;;;;;;;;;;;;;;;;;;5032688;28;19933;-67
2022/05/17 09:09:50;;;;;;;;;;;;;;;;;;5031366;28;19948;-69
2022/05/17 09:12:16;;;;;;;;;;;;;;;;;;5034345;28;19932;-66
2022/05/17 09:14:42;;;;;;;;;;;;;;;;;;5032884;28;19990;-69
2022/05/17 09:17:08;;;;;;;;;;;;;;;;;;5048408;28;19920;-67
2022/05/17 09:19:34;;;;;;;;;;;;;;;;;;5047688;28;19983;-66
2022/05/17 09:22:01;;;;;;;;;;;;;;;;;;5048216;28;19925;-69
2022/05/17 09:24:28;;;;;;;;;;;;;;;;;;5030225;28;19964;-67
2022/05/17 09:26:54;;;;;;;;;;;;;;;;;;5032086;28;19925;-68
2022/05/17 09:29:20;;;;;;;;;;;;;;;;;;5034159;28;20016;-69
2022/05/17 09:31:46;;;;;;;;;;;;;;;;;;5033675;28;20028;-68
2022/05/17 09:34:12;;;;;;;;;;;;;;;;;;5033713;28;19932;-68
2022/05/17 09:36:38;;;;;;;;;;;;;;;;;;5034976;28;19928;-69
2022/05/17 09:39:04;;;;;;;;;;;;;;;;;;5050605;28;19943;-68
2022/05/17 09:41:31;;;;;;;;;;;;;;;;;;5034505;28;20002;-66
2022/05/17 09:43:58;;;;;;;;;;;;;;;;;;5036375;28;19964;-66
2022/05/17 09:46:24;;;;;;;;;;;;;;;;;;5033316;28;20012;-67
2022/05/17 09:54:19;;;;;;;;;;;;;;;;;;5031701;28;20340;-68
2022/05/17 09:56:45;;;;;;;;;;;;;;;;;;5031982;28;19983;-67
2022/05/17 09:59:11;;;;;;;;;;;;;;;;;;5046733;28;19947;-68
2022/05/17 10:01:38;;;;;;;;;;;;;;;;;;5031438;28;19964;-70
2022/05/17 10:04:04;;;;;;;;;;;;;;;;;;5035829;28;19928;-70
2022/05/17 10:06:30;;;;;;;;;;;;;;;;;;5038991;28;20292;-69
2022/05/17 10:08:57;;;;;;;;;;;;;;;;;;5033311;28;19936;-71
2022/05/17 10:11:23;;;;;;;;;;;;;;;;;;5031371;28;19952;-71
2022/05/17 10:13:51;;;;;;;;;;;;;;;;;;5030409;28;20415;-71
2022/05/17 10:16:16;;;;;;;;;;;;;;;;;;5030667;28;19932;-72
2022/05/17 10:18:42;;;;;;;;;;;;;;;;;;5030693;28;19921;-71
2022/05/17 10:21:08;;;;;;;;;;;;;;;;;;5031632;28;19925;-71
2022/05/17 10:23:34;;;;;;;;;;;;;;;;;;5030365;28;19943;-71
2022/05/17 10:26:01;;;;;;;;;;;;;;;;;;5031152;28;19924;-71
2022/05/17 10:28:28;;;;;;;;;;;;;;;;;;5032677;28;19925;-71
2022/05/17 10:30:54;;;;;;;;;;;;;;;;;;5030738;28;20020;-71
2022/05/17 10:33:20;;;;;;;;;;;;;;;;;;5031803;28;20056;-71
2022/05/17 10:35:46;;;;;;;;;;;;;;;;;;5047473;28;20043;-71
2022/05/17 10:38:12;;;;;;;;;;;;;;;;;;5030360;28;19928;-71
2022/05/17 10:40:43;;;;;;;;;;;;;;;;;;5030472;28;20299;-69
2022/05/17 10:43:09;;;;;;;;;;;;;;;;;;5031491;28;19980;-69
2022/05/17 10:45:36;;;;;;;;;;;;;;;;;;5032743;28;20576;-69
2022/05/17 10:48:02;;;;;;;;;;;;;;;;;;5030984;28;20051;-69
2022/05/17 10:50:28;;;;;;;;;;;;;;;;;;5030634;28;19984;-68
2022/05/17 10:52:54;;;;;;;;;;;;;;;;;;5034566;28;19948;-69
2022/05/17 10:55:20;;;;;;;;;;;;;;;;;;5033595;28;20022;-69
2022/05/17 10:57:46;;;;;;;;;;;;;;;;;;5033281;28;19992;-71
2022/05/17 11:00:18;;;;;;;;;;;;;;;;;;5031880;28;19925;-69
2022/05/17 11:02:45;;;;;;;;;;;;;;;;;;5032591;28;19925;-68
2022/05/17 11:05:12;;;;;;;;;;;;;;;;;;5034383;28;19929;-68
2022/05/17 11:07:38;;;;;;;;;;;;;;;;;;5046437;28;20014;-66
2022/05/17 11:10:04;;;;;;;;;;;;;;;;;;5032170;28;20383;-68
2022/05/17 11:12:30;;;;;;;;;;;;;;;;;;5031763;28;19944;-67
2022/05/17 11:14:56;;;;;;;;;;;;;;;;;;5031628;28;19927;-67
2022/05/17 11:17:22;;;;;;;;;;;;;;;;;;5032479;28;20034;-67
2022/05/17 11:19:48;;;;;;;;;;;;;;;;;;5031802;28;19921;-66
2022/05/17 11:22:14;;;;;;;;;;;;;;;;;;5031529;28;19929;-67
2022/05/17 11:24:40;;;;;;;;;;;;;;;;;;5032193;28;20675;-68
2022/05/17 11:27:08;;;;;;;;;;;;;;;;;;5032197;28;20004;-68
2022/05/17 11:29:34;;;;;;;;;;;;;;;;;;5032057;28;19921;-69
2022/05/17 11:32:00;;;;;;;;;;;;;;;;;;5046573;28;19931;-69
2022/05/17 11:34:26;;;;;;;;;;;;;;;;;;5030340;28;19925;-70
2022/05/17 11:36:52;;;;;;;;;;;;;;;;;;5030356;28;19921;-68
2022/05/17 11:39:17;;;;;;;;;;;;;;;;;;5028999;28;19927;-69
2022/05/17 11:41:44;;;;;;;;;;;;;;;;;;5031084;28;19947;-69
2022/05/17 11:44:11;;;;;;;;;;;;;;;;;;5030329;28;19975;-68
2022/05/17 11:46:37;;;;;;;;;;;;;;;;;;5029057;28;20549;-67
2022/05/17 11:49:04;;;;;;;;;;;;;;;;;;5029305;28;19964;-68
2022/05/17 11:51:30;;;;;;;;;;;;;;;;;;5028576;28;20332;-68
2022/05/17 11:53:56;;;;;;;;;;;;;;;;;;5029526;28;19921;-67
2022/05/17 11:56:21;;;;;;;;;;;;;;;;;;5029686;28;19987;-69
2022/05/17 11:58:47;;;;;;;;;;;;;;;;;;5029997;28;19921;-68
2022/05/17 12:01:13;;;;;;;;;;;;;;;;;;5031096;28;19954;-67
2022/05/17 12:03:40;;;;;;;;;;;;;;;;;;5028278;28;19925;-68
2022/05/17 12:06:07;;;;;;;;;;;;;;;;;;5031415;28;20453;-69
2022/05/17 12:08:35;;;;;;;;;;;;;;;;;;5031564;28;19971;-69
2022/05/17 12:11:01;;;;;;;;;;;;;;;;;;5028712;28;19925;-69
2022/05/17 12:13:26;;;;;;;;;;;;;;;;;;5030654;28;19941;-67
2022/05/17 12:15:53;;;;;;;;;;;;;;;;;;5030038;28;19925;-71
2022/05/17 12:18:19;;;;;;;;;;;;;;;;;;5032599;28;19921;-69
2022/05/17 12:20:44;;;;;;;;;;;;;;;;;;5035293;28;20308;-68
2022/05/17 12:23:11;;;;;;;;;;;;;;;;;;5048810;28;19925;-68
2022/05/17 12:25:37;;;;;;;;;;;;;;;;;;5034337;28;19960;-70
2022/05/17 12:28:04;;;;;;;;;;;;;;;;;;5034976;28;20101;-70
2022/05/17 12:33:15;;;;;;;;;;;;;;;;;;5037066;28;19994;-68
2022/05/17 12:35:41;;;;;;;;;;;;;;;;;;5036041;28;19999;-67
2022/05/17 12:43:02;;;;;;;;;;;;;;;;;;5034754;28;19955;-67
2022/05/17 12:43:38;;;;;;;;;;;;;;;;;;5035539;28;20287;-70
2022/05/17 12:46:04;;;;;;;;;;;;;;;;;;5036331;28;19921;-68
2022/05/17 12:48:30;;;;;;;;;;;;;;;;;;5048140;28;20387;-67
2022/05/17 12:50:56;;;;;;;;;;;;;;;;;;5034415;28;20027;-71
2022/05/17 12:53:22;;;;;;;;;;;;;;;;;;5033874;28;20431;-69
2022/05/17 12:55:48;;;;;;;;;;;;;;;;;;5038160;28;19947;-71
2022/05/17 12:58:13;;;;;;;;;;;;;;;;;;5039045;28;19985;-69
2022/05/17 13:00:39;;;;;;;;;;;;;;;;;;5041501;28;19994;-71
2022/05/17 13:03:05;;;;;;;;;;;;;;;;;;5033685;28;19927;-70
2022/05/17 13:05:31;;;;;;;;;;;;;;;;;;5037626;28;19979;-69
2022/05/17 13:07:57;;;;;;;;;;;;;;;;;;5036658;28;19921;-69
2022/05/17 13:10:23;;;;;;;;;;;;;;;;;;5055064;28;19921;-68
2022/05/17 13:12:49;;;;;;;;;;;;;;;;;;5037680;28;19921;-66
2022/05/17 13:15:15;;;;;;;;;;;;;;;;;;5035291;28;19931;-69
2022/05/17 13:17:43;;;;;;;;;;;;;;;;;;5049794;28;19951;-69
2022/05/17 13:20:10;;;;;;;;;;;;;;;;;;5036053;28;20295;-68
2022/05/17 13:22:36;;;;;;;;;;;;;;;;;;5038755;28;19940;-68
2022/05/17 13:25:02;;;;;;;;;;;;;;;;;;5039515;28;19921;-69
2022/05/17 13:27:28;;;;;;;;;;;;;;;;;;5036698;28;20000;-69
2022/05/17 13:29:57;;;;;;;;;;;;;;;;;;5035141;28;20348;-68
2022/05/17 13:32:23;;;;;;;;;;;;;;;;;;5037399;28;19921;-67
2022/05/17 13:34:49;;;;;;;;;;;;;;;;;;5037759;28;19921;-68
2022/05/17 13:37:15;;;;;;;;;;;;;;;;;;5034551;28;19970;-67
2022/05/17 13:39:41;;;;;;;;;;;;;;;;;;5033669;28;19929;-69
2022/05/17 13:42:09;;;;;;;;;;;;;;;;;;5034032;28;19931;-64
2022/05/17 13:44:38;;;;;;;;;;;;;;;;;;5033211;28;20303;-66
2022/05/17 13:47:04;;;;;;;;;;;;;;;;;;5034167;28;20019;-68
2022/05/17 13:49:30;;;;;;;;;;;;;;;;;;5033895;28;20004;-66
2022/05/17 13:51:59;;;;;;;;;;;;;;;;;;5033089;28;19975;-65
2022/05/17 13:54:24;;;;;;;;;;;;;;;;;;5033850;28;19921;-67
2022/05/17 13:56:51;;;;;;;;;;;;;;;;;;5035034;28;19921;-65
2022/05/17 13:59:18;;;;;;;;;;;;;;;;;;5032291;28;19931;-67
2022/05/17 14:01:44;;;;;;;;;;;;;;;;;;5035695;28;20612;-68
2022/05/17 14:04:11;;;;;;;;;;;;;;;;;;5034349;28;20036;-65
2022/05/17 14:06:37;;;;;;;;;;;;;;;;;;5033239;28;20022;-64
2022/05/17 14:11:51;;;;;;;;;;;;;;;;;;5038421;28;20241;-68
2022/05/17 14:14:17;;;;;;;;;;;;;;;;;;5038129;28;19964;-67
2022/05/17 14:16:43;;;;;;;;;;;;;;;;;;5035480;28;19936;-68
2022/05/17 14:19:10;;;;;;;;;;;;;;;;;;5033478;28;19925;-67
2022/05/17 14:21:36;;;;;;;;;;;;;;;;;;5037562;28;20402;-67
2022/05/17 14:24:02;;;;;;;;;;;;;;;;;;5035169;28;19925;-68
2022/05/17 14:26:27;;;;;;;;;;;;;;;;;;5036214;28;19921;-67
2022/05/17 14:28:53;;;;;;;;;;;;;;;;;;5036404;28;19925;-69
2022/05/17 14:31:19;;;;;;;;;;;;;;;;;;5033681;28;19921;-69
2022/05/17 14:33:45;;;;;;;;;;;;;;;;;;5032855;28;19921;-67
2022/05/17 14:36:12;;;;;;;;;;;;;;;;;;5032860;28;19929;-68
2022/05/17 14:38:38;;;;;;;;;;;;;;;;;;5032083;28;19995;-70
2022/05/17 14:41:04;;;;;;;;;;;;;;;;;;5030649;28;19925;-67
2022/05/17 14:43:30;;;;;;;;;;;;;;;;;;5031750;28;19948;-66
2022/05/17 14:45:57;;;;;;;;;;;;;;;;;;5033669;28;19921;-69
2022/05/17 14:48:23;;;;;;;;;;;;;;;;;;5032694;28;19936;-67
2022/05/17 14:50:49;;;;;;;;;;;;;;;;;;5045756;28;20366;-69
2022/05/17 14:53:15;;;;;;;;;;;;;;;;;;5031793;28;19921;-72
2022/05/17 14:55:41;;;;;;;;;;;;;;;;;;5031226;28;19951;-72
2022/05/17 14:58:06;;;;;;;;;;;;;;;;;;5030227;28;19924;-72
2022/05/17 15:00:32;;;;;;;;;;;;;;;;;;5031753;28;19944;-72
2022/05/17 15:02:58;;;;;;;;;;;;;;;;;;5030520;28;19991;-72
2022/05/17 15:05:24;;;;;;;;;;;;;;;;;;5030438;28;19925;-72
2022/05/17 15:07:50;;;;;;;;;;;;;;;;;;5031058;28;19969;-72
2022/05/17 15:10:16;;;;;;;;;;;;;;;;;;5030867;28;19960;-72
2022/05/17 15:12:42;;;;;;;;;;;;;;;;;;5030412;28;19986;-72
2022/05/17 15:15:09;;;;;;;;;;;;;;;;;;5030937;28;19921;-72
2022/05/17 15:17:36;;;;;;;;;;;;;;;;;;5031341;28;20459;-72
2022/05/17 15:20:02;;;;;;;;;;;;;;;;;;5030410;28;19921;-72
2022/05/17 15:22:28;;;;;;;;;;;;;;;;;;5030793;28;19925;-72
2022/05/17 15:24:56;;;;;;;;;;;;;;;;;;5030718;28;19924;-72
2022/05/17 15:27:22;;;;;;;;;;;;;;;;;;5030003;28;19921;-72
2022/05/17 15:29:48;;;;;;;;;;;;;;;;;;5032117;28;20302;-72
2022/05/17 15:32:14;;;;;;;;;;;;;;;;;;5014320;28;19921;-72
2022/05/17 15:34:40;;;;;;;;;;;;;;;;;;5030071;28;19925;-72
2022/05/17 15:37:07;;;;;;;;;;;;;;;;;;5030653;28;20016;-72
2022/05/17 15:39:33;;;;;;;;;;;;;;;;;;5030305;28;19925;-72
2022/05/17 15:41:59;;;;;;;;;;;;;;;;;;5030005;28;20368;-72
2022/05/17 15:44:25;;;;;;;;;;;;;;;;;;5030651;28;19921;-72
2022/05/17 15:55:05;;;;;;;;;;;;;;;;;;5030450;28;20279;-72
2022/05/17 15:57:33;;;;;;;;;;;;;;;;;;5029879;28;19929;-72
2022/05/17 15:59:59;;;;;;;;;;;;;;;;;;5031902;28;19944;-72
2022/05/17 16:02:25;;;;;;;;;;;;;;;;;;5030411;28;19925;-72
2022/05/17 16:05:05;;;;;;;;;;;;;;;;;;5029737;28;20079;-72
2022/05/17 16:10:16;;;;;;;;;;;;;;;;;;5030273;28;20311;-72
2022/05/17 16:12:42;;;;;;;;;;;;;;;;;;5029670;28;19925;-72
2022/05/17 16:15:09;;;;;;;;;;;;;;;;;;5030588;28;19928;-72
2022/05/17 16:17:35;;;;;;;;;;;;;;;;;;5031816;28;20371;-72
2022/05/17 16:20:00;;;;;;;;;;;;;;;;;;5029388;28;20015;-72
2022/05/17 16:22:28;;;;;;;;;;;;;;;;;;5029846;28;19935;-72
2022/05/17 16:24:54;;;;;;;;;;;;;;;;;;5030101;28;20007;-72
2022/05/17 16:27:20;;;;;;;;;;;;;;;;;;5029602;28;19991;-72
2022/05/17 16:29:46;;;;;;;;;;;;;;;;;;5030252;28;20364;-72
2022/05/17 16:32:12;;;;;;;;;;;;;;;;;;5030033;28;19947;-72
2022/05/17 16:34:38;;;;;;;;;;;;;;;;;;5029447;28;19960;-72
2022/05/17 16:37:04;;;;;;;;;;;;;;;;;;5029998;28;19928;-72
2022/05/17 16:39:31;;;;;;;;;;;;;;;;;;5046530;28;20040;-72
2022/05/17 16:41:57;;;;;;;;;;;;;;;;;;5029470;28;19932;-72
2022/05/17 16:44:23;;;;;;;;;;;;;;;;;;5029964;28;19921;-72
2022/05/17 16:46:49;;;;;;;;;;;;;;;;;;5030058;28;20065;-72
2022/05/17 16:49:15;;;;;;;;;;;;;;;;;;5045761;28;20016;-72
2022/05/17 16:51:41;;;;;;;;;;;;;;;;;;5031361;28;20153;-72
2022/05/17 16:54:07;;;;;;;;;;;;;;;;;;5030017;28;19921;-72
2022/05/17 16:56:33;;;;;;;;;;;;;;;;;;5029261;28;19925;-72
2022/05/17 16:58:59;;;;;;;;;;;;;;;;;;5029963;28;19928;-72
2022/05/17 17:01:25;;;;;;;;;;;;;;;;;;5030028;28;19924;-72
2022/05/17 17:03:51;;;;;;;;;;;;;;;;;;5029233;28;20291;-72
2022/05/17 17:06:17;;;;;;;;;;;;;;;;;;5034377;28;20355;-72
2022/05/17 17:08:43;;;;;;;;;;;;;;;;;;5049958;28;19928;-72
2022/05/17 17:11:09;;;;;;;;;;;;;;;;;;5032579;28;19964;-72